Lamott, Pennsylvania
Current Conditions -  °F | °C
As of 5:54 AM on Thursday 23 Oct 2014 (Local Time) from KPNE Reporting Station
Light Rain Light Rain  
Wind Chill: 54°   Ceiling: 3900
Heat Index: 54°   Visibility: 10mi
Dew Point: 45°   Wind: 15mph
Humidity: 72%   Direction: 350°N
Pressure: 29.77"   Gusts: 25mph
Location:  40.0732°N, 75.1248°W
Report Text: KPNE 230954Z 35013G22KT 10SM -RA SCT030 OVC039 12/07 A2977 RMK AO2 RAB44 SLP079 P0000 T01220072 $
Loading
Personal Weather Stations






























Interactive Weather Map
Tropical Storm Tracking
New forecast layout! Learn more

10-Day Weather Forecast

Advertisements
Track Severe Weather on mobile